createdAt,value
2019-05-18T00:01:15.440Z,38.90
2019-05-18T00:04:31.539Z,38.90
2019-05-18T00:11:11.474Z,38.80
2019-05-18T00:17:25.187Z,38.70
2019-05-18T00:24:13.869Z,39.40
2019-05-18T00:27:29.448Z,38.70
2019-05-18T00:30:45.459Z,38.70
2019-05-18T00:34:00.849Z,38.70
2019-05-18T00:37:16.633Z,38.80
2019-05-18T00:40:32.027Z,38.70
2019-05-18T00:43:49.570Z,38.90
2019-05-18T00:47:06.749Z,38.70
2019-05-18T00:50:22.276Z,38.70
2019-05-18T00:53:36.008Z,38.60
2019-05-18T00:56:51.748Z,38.80
2019-05-18T01:00:07.711Z,38.60
2019-05-18T01:03:23.584Z,38.60
2019-05-18T01:06:39.470Z,38.60
2019-05-18T01:09:55.495Z,38.80
2019-05-18T01:13:11.312Z,38.80
2019-05-18T01:16:31.825Z,39.00
2019-05-18T01:19:47.357Z,38.70
2019-05-18T01:23:03.274Z,38.70
2019-05-18T01:26:19.256Z,38.70
2019-05-18T01:29:35.075Z,38.70
2019-05-18T01:32:51.068Z,38.90
2019-05-18T01:36:04.720Z,38.90
2019-05-18T01:39:27.393Z,38.90
2019-05-18T01:42:42.724Z,38.80
2019-05-18T01:49:22.980Z,38.90
2019-05-18T01:52:38.590Z,38.70
2019-05-18T01:55:54.647Z,38.70
2019-05-18T01:59:10.411Z,38.70
2019-05-18T02:02:26.476Z,38.90
2019-05-18T02:05:42.708Z,38.80
2019-05-18T02:08:58.931Z,38.50
2019-05-18T02:12:17.157Z,38.70
2019-05-18T02:15:32.988Z,38.70
2019-05-18T02:18:48.760Z,38.70
2019-05-18T02:22:04.764Z,38.70
2019-05-18T02:25:20.670Z,38.70
2019-05-18T02:28:34.270Z,38.70
2019-05-18T02:31:49.644Z,38.90
2019-05-18T02:35:05.569Z,38.70
2019-05-18T02:38:20.780Z,38.70
2019-05-18T02:41:36.767Z,38.90
2019-05-18T02:55:05.875Z,38.80
2019-05-18T02:58:22.867Z,38.90
2019-05-18T03:01:38.165Z,38.90
2019-05-18T03:04:54.007Z,38.80
2019-05-18T03:11:40.483Z,38.70
2019-05-18T03:18:13.428Z,38.70
2019-05-18T03:21:29.512Z,38.90
2019-05-18T03:24:45.048Z,38.90
2019-05-18T03:28:00.780Z,38.70
2019-05-18T03:31:16.750Z,39.00
2019-05-18T03:34:32.733Z,38.90
2019-05-18T03:37:48.747Z,38.80
2019-05-18T03:41:06.944Z,38.90
2019-05-18T03:44:22.622Z,38.90
2019-05-18T03:47:38.147Z,38.80
2019-05-18T03:50:53.999Z,38.90
2019-05-18T03:54:07.637Z,38.70
2019-05-18T03:57:23.303Z,38.90
2019-05-18T04:00:39.015Z,38.70
2019-05-18T04:03:55.036Z,38.90
2019-05-18T04:07:10.917Z,38.80
2019-05-18T04:10:26.480Z,38.80
2019-05-18T04:13:42.199Z,38.90
2019-05-18T04:16:58.217Z,38.80
2019-05-18T04:20:01.516Z,38.80
2019-05-18T04:23:24.202Z,39.00
2019-05-18T04:26:46.883Z,39.00
2019-05-18T04:30:09.561Z,38.80
2019-05-18T04:33:25.163Z,39.00
2019-05-18T04:36:40.915Z,38.90
2019-05-18T04:39:56.716Z,38.80
2019-05-18T04:46:36.996Z,38.90
2019-05-18T04:50:04.552Z,38.80
2019-05-18T04:59:58.736Z,39.00
2019-05-18T05:03:13.966Z,38.80
2019-05-18T05:06:29.630Z,39.00
2019-05-18T05:09:45.719Z,39.00
2019-05-18T05:16:26.339Z,39.00
2019-05-18T05:19:42.232Z,38.80
2019-05-18T05:22:58.051Z,39.00
2019-05-18T05:26:14.129Z,39.00
2019-05-18T05:29:30.388Z,39.00
2019-05-18T05:32:46.159Z,38.80
2019-05-18T05:36:02.229Z,38.90
2019-05-18T05:39:17.949Z,38.80
2019-05-18T05:42:34.098Z,39.00
2019-05-18T05:45:49.667Z,38.90
2019-05-18T05:49:05.641Z,38.80
2019-05-18T05:52:21.480Z,39.00
2019-05-18T05:55:37.231Z,39.00
2019-05-18T05:58:53.026Z,38.80
2019-05-18T06:02:08.603Z,38.90
2019-05-18T06:05:24.304Z,38.80
2019-05-18T06:08:39.668Z,39.10
2019-05-18T06:11:55.209Z,39.00
2019-05-18T06:15:10.987Z,38.80
2019-05-18T06:18:26.782Z,38.90
2019-05-18T06:21:42.830Z,38.90
2019-05-18T06:24:58.030Z,38.90
2019-05-18T06:28:13.942Z,39.00
2019-05-18T06:31:29.160Z,39.10
2019-05-18T06:34:45.128Z,38.80
2019-05-18T06:42:10.773Z,39.00
2019-05-18T08:05:38.394Z,39.00
2019-05-18T08:26:07.962Z,38.90
2019-05-18T09:48:43.985Z,39.50
2019-05-18T10:23:25.881Z,39.30
2019-05-18T10:26:46.096Z,39.40
2019-05-18T10:44:01.032Z,39.40
2019-05-18T11:01:20.717Z,39.30
2019-05-18T11:04:36.860Z,39.40
2019-05-18T11:07:52.504Z,39.60
2019-05-18T11:14:44.684Z,39.30
2019-05-18T11:17:59.979Z,39.40
2019-05-18T11:21:15.302Z,39.50
2019-05-18T11:24:18.599Z,39.70
2019-05-18T11:27:41.277Z,39.80
2019-05-18T11:31:06.986Z,39.80
2019-05-18T11:37:47.238Z,39.80
2019-05-18T11:41:02.855Z,39.70
2019-05-18T11:47:42.745Z,39.70
2019-05-18T11:50:58.750Z,39.70
2019-05-18T11:54:13.966Z,39.80
2019-05-18T11:57:30.232Z,39.90
2019-05-18T12:00:45.859Z,39.90
2019-05-18T12:04:01.511Z,39.90
2019-05-18T12:07:17.530Z,40.00
2019-05-18T12:10:33.357Z,40.00
2019-05-18T12:13:49.396Z,39.90
2019-05-18T12:17:04.691Z,39.80
2019-05-18T12:20:20.906Z,39.80
2019-05-18T12:23:37.086Z,39.70
2019-05-18T12:26:53.132Z,39.60
2019-05-18T12:30:08.367Z,39.60
2019-05-18T12:33:24.515Z,39.60
2019-05-18T12:36:39.810Z,39.70
2019-05-18T12:39:55.811Z,39.50
2019-05-18T12:43:11.462Z,39.60
2019-05-18T12:46:27.160Z,39.60
2019-05-18T12:49:43.260Z,39.40
2019-05-18T12:56:23.033Z,39.40
2019-05-18T12:59:38.281Z,39.50
2019-05-18T13:02:53.550Z,39.40
2019-05-18T13:06:10.683Z,39.40
2019-05-18T13:09:26.332Z,39.30
2019-05-18T13:12:42.156Z,39.50
2019-05-18T13:15:58.222Z,39.70
2019-05-18T13:19:14.115Z,39.70
2019-05-18T13:22:29.976Z,39.80
2019-05-18T13:25:46.035Z,39.60
2019-05-18T13:29:01.645Z,39.60
2019-05-18T13:32:17.890Z,39.40
2019-05-18T13:35:33.951Z,39.60
2019-05-18T13:38:49.923Z,39.30
2019-05-18T13:42:05.688Z,39.40
2019-05-18T13:45:24.577Z,39.30
2019-05-18T13:52:04.903Z,39.40
2019-05-18T13:55:20.104Z,39.20
2019-05-18T13:58:35.416Z,39.20
2019-05-18T14:01:54.552Z,39.10
2019-05-18T14:08:32.166Z,39.10
2019-05-18T14:11:49.532Z,39.10
2019-05-18T14:15:27.218Z,39.30
2019-05-18T14:18:32.871Z,39.10
2019-05-18T14:21:48.942Z,39.00
2019-05-18T14:25:18.837Z,39.20
2019-05-18T14:28:25.285Z,39.00
2019-05-18T14:35:05.584Z,39.10
2019-05-18T14:38:21.506Z,39.00
2019-05-18T14:41:42.354Z,39.00
2019-05-18T14:44:55.075Z,39.10
2019-05-18T14:48:11.177Z,39.10
2019-05-18T14:51:14.448Z,39.10
2019-05-18T14:54:37.124Z,39.00
2019-05-18T14:57:59.833Z,39.00
2019-05-18T15:01:03.222Z,39.00
2019-05-18T15:04:25.899Z,39.00
2019-05-18T15:07:51.601Z,39.00
2019-05-18T15:11:07.455Z,38.90
2019-05-18T15:17:47.899Z,38.80
2019-05-18T15:21:06.187Z,38.80
2019-05-18T15:24:21.027Z,38.80
2019-05-18T15:27:39.148Z,38.90
2019-05-18T15:34:26.711Z,38.70
2019-05-18T15:37:43.670Z,38.90
2019-05-18T15:40:59.297Z,38.80
2019-05-18T15:44:15.423Z,38.80
2019-05-18T15:47:31.524Z,38.70
2019-05-18T15:50:34.874Z,38.70
2019-05-18T15:57:21.336Z,38.80
2019-05-18T16:00:37.296Z,38.90
2019-05-18T16:10:34.116Z,39.00
2019-05-18T16:17:07.340Z,38.80
2019-05-18T16:20:23.239Z,38.90
2019-05-18T16:23:38.584Z,38.80
2019-05-18T16:26:53.789Z,38.80
2019-05-18T16:30:09.035Z,39.10
2019-05-18T16:33:26.081Z,39.10
2019-05-18T16:36:41.700Z,39.00
2019-05-18T16:39:57.104Z,39.10
2019-05-18T16:43:17.157Z,39.20
2019-05-18T16:46:29.885Z,39.30
2019-05-18T16:49:45.716Z,39.20
2019-05-18T16:53:02.072Z,39.20
2019-05-18T16:59:42.330Z,39.20
2019-05-18T17:02:58.451Z,39.10
2019-05-18T17:06:16.545Z,39.10
2019-05-18T17:09:32.561Z,39.20
2019-05-18T17:12:48.011Z,39.10
2019-05-18T17:16:05.978Z,39.00
2019-05-18T17:19:23.222Z,39.10
2019-05-18T17:22:38.280Z,39.20
2019-05-18T17:25:54.136Z,39.20
2019-05-18T17:29:09.378Z,39.20
2019-05-18T17:32:25.473Z,39.20
2019-05-18T17:35:40.715Z,39.10
2019-05-18T17:38:56.513Z,39.20
2019-05-18T17:42:11.866Z,39.20
2019-05-18T17:45:27.796Z,38.80
2019-05-18T17:48:43.747Z,39.10
2019-05-18T17:55:23.402Z,38.90
2019-05-18T17:58:39.483Z,39.00
2019-05-18T18:01:55.362Z,39.00
2019-05-18T18:05:10.555Z,38.80
2019-05-18T18:11:54.186Z,38.90
2019-05-18T18:15:09.474Z,38.80
2019-05-18T18:18:24.759Z,39.00
2019-05-18T18:21:40.584Z,38.90
2019-05-18T18:24:56.486Z,39.00
2019-05-18T18:28:12.371Z,39.10
2019-05-18T18:31:28.471Z,38.90
2019-05-18T18:34:44.268Z,39.70
2019-05-18T18:37:59.627Z,38.90
2019-05-18T18:41:14.931Z,39.00
2019-05-18T18:44:30.902Z,38.90
2019-05-18T18:51:10.967Z,39.40
2019-05-18T18:54:26.926Z,39.70
2019-05-18T18:57:43.011Z,39.80
2019-05-18T19:00:58.370Z,39.70
2019-05-18T19:04:14.328Z,39.90
2019-05-18T19:10:56.152Z,39.70
2019-05-18T19:14:12.055Z,39.90
2019-05-18T19:17:15.311Z,39.70
2019-05-18T19:20:57.394Z,39.90
2019-05-18T19:24:13.353Z,39.80
2019-05-18T19:27:28.582Z,39.50
2019-05-18T19:30:44.524Z,39.70
2019-05-18T19:34:00.527Z,39.70
2019-05-18T19:37:16.461Z,39.50
2019-05-18T19:40:31.949Z,39.70
2019-05-18T19:47:14.194Z,39.60
2019-05-18T19:50:36.867Z,39.50
2019-05-18T19:57:16.640Z,39.60
2019-05-18T20:00:32.577Z,39.50
2019-05-18T20:03:48.615Z,39.40
2019-05-18T20:07:03.922Z,39.50
2019-05-18T20:10:19.633Z,39.40
2019-05-18T20:13:35.522Z,39.40
2019-05-18T20:16:49.261Z,39.20
2019-05-18T20:20:04.635Z,39.20
2019-05-18T20:23:20.664Z,39.20
2019-05-18T20:26:36.589Z,39.10
2019-05-18T20:29:53.310Z,39.10
2019-05-18T20:33:08.976Z,39.00
2019-05-18T20:43:05.988Z,38.90
2019-05-18T20:53:03.127Z,39.00
2019-05-18T20:56:18.978Z,39.00
2019-05-18T20:59:34.809Z,38.80
2019-05-18T21:02:50.837Z,38.90
2019-05-18T21:06:06.682Z,38.90
2019-05-18T21:09:21.963Z,39.00
2019-05-18T21:12:38.106Z,38.90
2019-05-18T21:15:53.513Z,38.80
2019-05-18T21:19:09.434Z,38.90
2019-05-18T21:22:25.278Z,38.80
2019-05-18T21:25:41.379Z,38.80
2019-05-18T21:29:00.754Z,38.80
2019-05-18T21:32:14.408Z,38.90
2019-05-18T21:35:30.415Z,38.90
2019-05-18T21:38:46.576Z,38.90
2019-05-18T21:42:00.233Z,38.80
2019-05-18T21:45:17.704Z,38.90
2019-05-18T21:48:32.971Z,38.90
2019-05-18T21:55:12.113Z,38.80
2019-05-18T21:58:29.157Z,38.90
2019-05-18T22:01:44.355Z,38.80
2019-05-18T22:05:00.411Z,38.70
2019-05-18T22:08:15.736Z,38.80
2019-05-18T22:11:31.774Z,38.80
2019-05-18T22:14:46.921Z,38.80
2019-05-18T22:18:03.004Z,38.80
2019-05-18T22:21:18.208Z,38.80
2019-05-18T22:24:34.315Z,38.70
2019-05-18T22:27:50.135Z,38.90
2019-05-18T22:31:05.612Z,38.80
2019-05-18T22:34:21.396Z,38.90
2019-05-18T22:37:55.811Z,38.80
2019-05-18T22:40:59.478Z,38.80
2019-05-18T22:47:32.001Z,38.90
2019-05-18T22:50:48.172Z,38.90
2019-05-18T22:53:51.772Z,38.90
2019-05-18T22:57:14.456Z,38.90
2019-05-18T23:00:37.150Z,38.70
2019-05-18T23:03:52.758Z,38.90
2019-05-18T23:07:08.836Z,38.80
2019-05-18T23:10:24.933Z,38.90
2019-05-18T23:13:40.834Z,38.90
2019-05-18T23:16:56.097Z,38.80
2019-05-18T23:20:11.971Z,38.90
2019-05-18T23:23:27.138Z,38.80
2019-05-18T23:26:43.203Z,38.90
2019-05-18T23:29:56.804Z,38.90
2019-05-18T23:33:12.848Z,38.90
2019-05-18T23:39:56.885Z,38.90
2019-05-18T23:43:12.887Z,38.80
2019-05-18T23:46:28.979Z,38.90
2019-05-18T23:49:45.024Z,38.80
2019-05-18T23:53:01.114Z,38.70
2019-05-18T23:56:16.819Z,38.70
2019-05-18T23:59:32.040Z,38.90
